sensor_id;sensor_type;location;lat;lon;timestamp;temperature;humidity
14769;DHT22;7476;49.404;11.152;2022-11-18T00:01:52;7.60;99.90
14769;DHT22;7476;49.404;11.152;2022-11-18T00:04:19;7.60;99.90
14769;DHT22;7476;49.404;11.152;2022-11-18T00:06:46;7.50;99.90
14769;DHT22;7476;49.404;11.152;2022-11-18T00:09:14;7.40;99.90
14769;DHT22;7476;49.404;11.152;2022-11-18T00:11:40;7.40;99.90
14769;DHT22;7476;49.404;11.152;2022-11-18T00:14:25;7.40;99.90
14769;DHT22;7476;49.404;11.152;2022-11-18T00:16:54;7.40;99.90
14769;DHT22;7476;49.404;11.152;2022-11-18T00:19:23;7.40;99.90
14769;DHT22;7476;49.404;11.152;2022-11-18T00:21:49;7.30;99.90
14769;DHT22;7476;49.404;11.152;2022-11-18T00:24:18;7.30;99.90
14769;DHT22;7476;49.404;11.152;2022-11-18T00:26:45;7.30;99.90
14769;DHT22;7476;49.404;11.152;2022-11-18T00:29:12;7.30;99.90
14769;DHT22;7476;49.404;11.152;2022-11-18T00:31:39;7.10;99.90
14769;DHT22;7476;49.404;11.152;2022-11-18T00:34:06;7.10;99.90
14769;DHT22;7476;49.404;11.152;2022-11-18T00:36:33;6.90;99.90
14769;DHT22;7476;49.404;11.152;2022-11-18T00:39:00;6.90;99.90
14769;DHT22;7476;49.404;11.152;2022-11-18T00:41:29;6.90;99.90
14769;DHT22;7476;49.404;11.152;2022-11-18T00:44:15;6.80;99.90
14769;DHT22;7476;49.404;11.152;2022-11-18T00:46:41;6.90;99.90
14769;DHT22;7476;49.404;11.152;2022-11-18T00:49:08;6.90;99.90
14769;DHT22;7476;49.404;11.152;2022-11-18T00:51:35;7.10;99.90
14769;DHT22;7476;49.404;11.152;2022-11-18T00:54:02;7.10;99.90
14769;DHT22;7476;49.404;11.152;2022-11-18T00:56:30;7.10;99.90
14769;DHT22;7476;49.404;11.152;2022-11-18T00:58:57;7.00;99.90
14769;DHT22;7476;49.404;11.152;2022-11-18T01:01:24;7.00;99.90
14769;DHT22;7476;49.404;11.152;2022-11-18T01:03:51;7.10;99.90
14769;DHT22;7476;49.404;11.152;2022-11-18T01:06:18;7.10;99.90
14769;DHT22;7476;49.404;11.152;2022-11-18T01:08:45;7.20;99.90
14769;DHT22;7476;49.404;11.152;2022-11-18T01:11:12;7.20;99.90
14769;DHT22;7476;49.404;11.152;2022-11-18T01:13:57;7.20;99.90
14769;DHT22;7476;49.404;11.152;2022-11-18T01:16:25;7.20;99.90
14769;DHT22;7476;49.404;11.152;2022-11-18T01:18:52;7.00;99.90
14769;DHT22;7476;49.404;11.152;2022-11-18T01:21:20;6.80;99.90
14769;DHT22;7476;49.404;11.152;2022-11-18T01:23:46;6.80;99.90
14769;DHT22;7476;49.404;11.152;2022-11-18T01:26:15;6.80;99.90
14769;DHT22;7476;49.404;11.152;2022-11-18T01:28:42;6.50;99.90
14769;DHT22;7476;49.404;11.152;2022-11-18T01:31:12;6.20;99.90
14769;DHT22;7476;49.404;11.152;2022-11-18T01:33:39;5.90;99.90
14769;DHT22;7476;49.404;11.152;2022-11-18T01:36:14;6.00;99.90
14769;DHT22;7476;49.404;11.152;2022-11-18T01:38:41;5.90;99.90
14769;DHT22;7476;49.404;11.152;2022-11-18T01:41:08;5.60;99.90
14769;DHT22;7476;49.404;11.152;2022-11-18T01:43:51;5.50;99.90
14769;DHT22;7476;49.404;11.152;2022-11-18T01:46:21;5.60;99.90
14769;DHT22;7476;49.404;11.152;2022-11-18T01:48:50;5.60;99.90
14769;DHT22;7476;49.404;11.152;2022-11-18T01:51:21;5.70;99.90
14769;DHT22;7476;49.404;11.152;2022-11-18T01:53:51;5.80;99.90
14769;DHT22;7476;49.404;11.152;2022-11-18T01:56:24;5.90;99.90
14769;DHT22;7476;49.404;11.152;2022-11-18T01:58:53;5.90;99.90
14769;DHT22;7476;49.404;11.152;2022-11-18T02:01:23;6.00;99.90
14769;DHT22;7476;49.404;11.152;2022-11-18T02:03:51;6.10;99.90
14769;DHT22;7476;49.404;11.152;2022-11-18T02:06:19;6.40;99.90
14769;DHT22;7476;49.404;11.152;2022-11-18T02:08:47;6.50;99.90
14769;DHT22;7476;49.404;11.152;2022-11-18T02:11:15;6.60;99.90
14769;DHT22;7476;49.404;11.152;2022-11-18T02:13:56;6.70;99.90
14769;DHT22;7476;49.404;11.152;2022-11-18T02:16:30;6.60;99.90
14769;DHT22;7476;49.404;11.152;2022-11-18T02:19:08;6.60;99.90
14769;DHT22;7476;49.404;11.152;2022-11-18T02:21:48;6.50;99.90
14769;DHT22;7476;49.404;11.152;2022-11-18T02:24:32;6.40;99.90
14769;DHT22;7476;49.404;11.152;2022-11-18T02:27:39;6.30;99.90
14769;DHT22;7476;49.404;11.152;2022-11-18T02:30:10;6.20;99.90
14769;DHT22;7476;49.404;11.152;2022-11-18T02:32:42;6.30;99.90
14769;DHT22;7476;49.404;11.152;2022-11-18T02:35:14;6.20;99.90
14769;DHT22;7476;49.404;11.152;2022-11-18T02:37:46;6.00;99.90
14769;DHT22;7476;49.404;11.152;2022-11-18T02:40:17;5.90;99.90
14769;DHT22;7476;49.404;11.152;2022-11-18T02:42:49;5.80;99.90
14769;DHT22;7476;49.404;11.152;2022-11-18T02:45:20;5.70;99.90
14769;DHT22;7476;49.404;11.152;2022-11-18T02:47:48;5.70;99.90
14769;DHT22;7476;49.404;11.152;2022-11-18T02:50:18;5.80;99.90
14769;DHT22;7476;49.404;11.152;2022-11-18T02:52:49;5.90;99.90
14769;DHT22;7476;49.404;11.152;2022-11-18T02:55:18;6.10;99.90
14769;DHT22;7476;49.404;11.152;2022-11-18T02:57:46;6.30;99.90
14769;DHT22;7476;49.404;11.152;2022-11-18T03:00:14;6.30;99.90
14769;DHT22;7476;49.404;11.152;2022-11-18T03:02:44;6.40;99.90
14769;DHT22;7476;49.404;11.152;2022-11-18T03:05:17;6.40;99.90
14769;DHT22;7476;49.404;11.152;2022-11-18T03:07:49;6.50;99.90
14769;DHT22;7476;49.404;11.152;2022-11-18T03:10:18;6.50;99.90
14769;DHT22;7476;49.404;11.152;2022-11-18T03:12:53;6.40;99.90
14769;DHT22;7476;49.404;11.152;2022-11-18T03:15:31;6.50;99.90
14769;DHT22;7476;49.404;11.152;2022-11-18T03:18:06;6.50;99.90
14769;DHT22;7476;49.404;11.152;2022-11-18T03:20:41;6.50;99.90
14769;DHT22;7476;49.404;11.152;2022-11-18T03:23:15;6.60;99.90
14769;DHT22;7476;49.404;11.152;2022-11-18T03:25:45;6.70;99.90
14769;DHT22;7476;49.404;11.152;2022-11-18T03:28:16;6.80;99.90
14769;DHT22;7476;49.404;11.152;2022-11-18T03:30:46;6.90;99.90
14769;DHT22;7476;49.404;11.152;2022-11-18T03:33:21;6.90;99.90
14769;DHT22;7476;49.404;11.152;2022-11-18T03:35:52;7.00;99.90
14769;DHT22;7476;49.404;11.152;2022-11-18T03:38:24;7.00;99.90
14769;DHT22;7476;49.404;11.152;2022-11-18T03:40:54;7.00;99.90
14769;DHT22;7476;49.404;11.152;2022-11-18T03:43:25;7.00;99.90
14769;DHT22;7476;49.404;11.152;2022-11-18T03:45:58;7.10;99.90
14769;DHT22;7476;49.404;11.152;2022-11-18T03:48:30;7.00;99.90
14769;DHT22;7476;49.404;11.152;2022-11-18T03:51:00;7.00;99.90
14769;DHT22;7476;49.404;11.152;2022-11-18T03:53:30;7.00;99.90
14769;DHT22;7476;49.404;11.152;2022-11-18T03:56:02;7.00;99.90
14769;DHT22;7476;49.404;11.152;2022-11-18T03:58:35;7.00;99.90
14769;DHT22;7476;49.404;11.152;2022-11-18T04:01:05;7.00;99.90
14769;DHT22;7476;49.404;11.152;2022-11-18T04:03:38;6.90;99.90
14769;DHT22;7476;49.404;11.152;2022-11-18T04:06:22;6.90;99.90
14769;DHT22;7476;49.404;11.152;2022-11-18T04:08:54;6.90;99.90
14769;DHT22;7476;49.404;11.152;2022-11-18T04:11:24;6.90;99.90
14769;DHT22;7476;49.404;11.152;2022-11-18T04:14:10;6.90;99.90
14769;DHT22;7476;49.404;11.152;2022-11-18T04:16:39;6.90;99.90
14769;DHT22;7476;49.404;11.152;2022-11-18T04:19:07;6.90;99.90
14769;DHT22;7476;49.404;11.152;2022-11-18T04:21:34;7.00;99.90
14769;DHT22;7476;49.404;11.152;2022-11-18T04:24:00;7.00;99.90
14769;DHT22;7476;49.404;11.152;2022-11-18T04:26:27;7.00;99.90
14769;DHT22;7476;49.404;11.152;2022-11-18T04:28:55;7.00;99.90
14769;DHT22;7476;49.404;11.152;2022-11-18T04:31:22;7.00;99.90
14769;DHT22;7476;49.404;11.152;2022-11-18T04:33:49;7.10;99.90
14769;DHT22;7476;49.404;11.152;2022-11-18T04:36:17;7.00;99.90
14769;DHT22;7476;49.404;11.152;2022-11-18T04:38:44;7.00;99.90
14769;DHT22;7476;49.404;11.152;2022-11-18T04:41:11;7.00;99.90
14769;DHT22;7476;49.404;11.152;2022-11-18T04:43:37;7.10;99.90
14769;DHT22;7476;49.404;11.152;2022-11-18T04:46:04;7.10;99.90
14769;DHT22;7476;49.404;11.152;2022-11-18T04:48:31;7.10;99.90
14769;DHT22;7476;49.404;11.152;2022-11-18T04:51:01;7.10;99.90
14769;DHT22;7476;49.404;11.152;2022-11-18T04:53:29;7.10;99.90
14769;DHT22;7476;49.404;11.152;2022-11-18T04:56:03;7.10;99.90
14769;DHT22;7476;49.404;11.152;2022-11-18T04:58:31;7.20;99.90
14769;DHT22;7476;49.404;11.152;2022-11-18T05:00:57;7.10;99.90
14769;DHT22;7476;49.404;11.152;2022-11-18T05:03:24;7.20;99.90
14769;DHT22;7476;49.404;11.152;2022-11-18T05:05:51;7.20;99.90
14769;DHT22;7476;49.404;11.152;2022-11-18T05:08:17;7.20;99.90
14769;DHT22;7476;49.404;11.152;2022-11-18T05:10:45;7.20;99.90
14769;DHT22;7476;49.404;11.152;2022-11-18T05:13:12;7.10;99.90
14769;DHT22;7476;49.404;11.152;2022-11-18T05:15:38;7.20;99.90
14769;DHT22;7476;49.404;11.152;2022-11-18T05:18:04;7.10;99.90
14769;DHT22;7476;49.404;11.152;2022-11-18T05:20:31;7.10;99.90
14769;DHT22;7476;49.404;11.152;2022-11-18T05:22:57;7.10;99.90
14769;DHT22;7476;49.404;11.152;2022-11-18T05:25:24;7.10;99.90
14769;DHT22;7476;49.404;11.152;2022-11-18T05:27:52;7.10;99.90
14769;DHT22;7476;49.404;11.152;2022-11-18T05:30:19;7.20;99.90
14769;DHT22;7476;49.404;11.152;2022-11-18T05:32:45;7.20;99.90
14769;DHT22;7476;49.404;11.152;2022-11-18T05:35:12;7.20;99.90
14769;DHT22;7476;49.404;11.152;2022-11-18T05:37:39;7.20;99.90
14769;DHT22;7476;49.404;11.152;2022-11-18T05:40:07;7.20;99.90
14769;DHT22;7476;49.404;11.152;2022-11-18T05:42:34;7.20;99.90
14769;DHT22;7476;49.404;11.152;2022-11-18T05:45:20;7.20;99.90
14769;DHT22;7476;49.404;11.152;2022-11-18T05:47:46;7.20;99.90
14769;DHT22;7476;49.404;11.152;2022-11-18T05:50:25;7.20;99.90
14769;DHT22;7476;49.404;11.152;2022-11-18T05:52:52;7.20;99.90
14769;DHT22;7476;49.404;11.152;2022-11-18T05:55:19;7.20;99.90
14769;DHT22;7476;49.404;11.152;2022-11-18T05:57:47;7.20;99.90
14769;DHT22;7476;49.404;11.152;2022-11-18T06:00:15;7.20;99.90
14769;DHT22;7476;49.404;11.152;2022-11-18T06:02:45;7.20;99.90
14769;DHT22;7476;49.404;11.152;2022-11-18T06:05:14;7.20;99.90
14769;DHT22;7476;49.404;11.152;2022-11-18T06:07:43;7.20;99.90
14769;DHT22;7476;49.404;11.152;2022-11-18T06:10:12;7.20;99.90
14769;DHT22;7476;49.404;11.152;2022-11-18T06:12:46;7.20;99.90
14769;DHT22;7476;49.404;11.152;2022-11-18T06:15:17;7.20;99.90
14769;DHT22;7476;49.404;11.152;2022-11-18T06:17:49;7.30;99.90
14769;DHT22;7476;49.404;11.152;2022-11-18T06:20:18;7.30;99.90
14769;DHT22;7476;49.404;11.152;2022-11-18T06:22:45;7.30;99.90
14769;DHT22;7476;49.404;11.152;2022-11-18T06:25:12;7.30;99.90
14769;DHT22;7476;49.404;11.152;2022-11-18T06:27:39;7.30;99.90
14769;DHT22;7476;49.404;11.152;2022-11-18T06:30:08;7.30;99.90
14769;DHT22;7476;49.404;11.152;2022-11-18T06:32:35;7.30;99.90
14769;DHT22;7476;49.404;11.152;2022-11-18T06:35:03;7.30;99.90
14769;DHT22;7476;49.404;11.152;2022-11-18T06:37:30;7.30;99.90
14769;DHT22;7476;49.404;11.152;2022-11-18T06:39:57;7.30;99.90
14769;DHT22;7476;49.404;11.152;2022-11-18T06:42:26;7.30;99.90
14769;DHT22;7476;49.404;11.152;2022-11-18T06:45:08;7.30;99.90
14769;DHT22;7476;49.404;11.152;2022-11-18T06:47:34;7.40;99.90
14769;DHT22;7476;49.404;11.152;2022-11-18T06:50:03;7.40;99.90
14769;DHT22;7476;49.404;11.152;2022-11-18T06:52:30;7.40;99.90
14769;DHT22;7476;49.404;11.152;2022-11-18T06:54:57;7.40;99.90
14769;DHT22;7476;49.404;11.152;2022-11-18T06:57:23;7.40;99.90
14769;DHT22;7476;49.404;11.152;2022-11-18T06:59:50;7.50;99.90
14769;DHT22;7476;49.404;11.152;2022-11-18T07:02:17;7.50;99.90
14769;DHT22;7476;49.404;11.152;2022-11-18T07:04:43;7.50;99.90
14769;DHT22;7476;49.404;11.152;2022-11-18T07:07:11;7.50;99.90
14769;DHT22;7476;49.404;11.152;2022-11-18T07:09:38;7.50;99.90
14769;DHT22;7476;49.404;11.152;2022-11-18T07:12:05;7.60;99.90
14769;DHT22;7476;49.404;11.152;2022-11-18T07:14:32;7.60;99.90
14769;DHT22;7476;49.404;11.152;2022-11-18T07:16:58;7.60;99.90
14769;DHT22;7476;49.404;11.152;2022-11-18T07:19:25;7.60;99.90
14769;DHT22;7476;49.404;11.152;2022-11-18T07:22:21;7.60;99.90
14769;DHT22;7476;49.404;11.152;2022-11-18T07:24:48;7.60;99.90
14769;DHT22;7476;49.404;11.152;2022-11-18T07:27:14;7.60;99.90
14769;DHT22;7476;49.404;11.152;2022-11-18T07:29:41;7.60;99.90
14769;DHT22;7476;49.404;11.152;2022-11-18T07:32:07;7.60;99.90
14769;DHT22;7476;49.404;11.152;2022-11-18T07:34:34;7.60;99.90
14769;DHT22;7476;49.404;11.152;2022-11-18T07:37:01;7.60;99.90
14769;DHT22;7476;49.404;11.152;2022-11-18T07:39:29;7.60;99.90
14769;DHT22;7476;49.404;11.152;2022-11-18T07:41:56;7.60;99.90
14769;DHT22;7476;49.404;11.152;2022-11-18T07:44:22;7.60;99.90
14769;DHT22;7476;49.404;11.152;2022-11-18T07:46:49;7.60;99.90
14769;DHT22;7476;49.404;11.152;2022-11-18T07:49:16;7.60;99.90
14769;DHT22;7476;49.404;11.152;2022-11-18T07:51:42;7.60;99.90
14769;DHT22;7476;49.404;11.152;2022-11-18T07:54:11;7.60;99.90
14769;DHT22;7476;49.404;11.152;2022-11-18T07:56:40;7.70;99.90
14769;DHT22;7476;49.404;11.152;2022-11-18T07:59:07;7.70;99.90
14769;DHT22;7476;49.404;11.152;2022-11-18T08:01:34;7.70;99.90
14769;DHT22;7476;49.404;11.152;2022-11-18T08:04:04;7.70;99.90
14769;DHT22;7476;49.404;11.152;2022-11-18T08:06:32;7.70;99.90
14769;DHT22;7476;49.404;11.152;2022-11-18T08:08:59;7.70;99.90
14769;DHT22;7476;49.404;11.152;2022-11-18T08:11:26;7.70;99.90
14769;DHT22;7476;49.404;11.152;2022-11-18T08:13:54;7.70;99.90
14769;DHT22;7476;49.404;11.152;2022-11-18T08:16:22;7.70;99.90
14769;DHT22;7476;49.404;11.152;2022-11-18T08:18:50;7.70;99.90
14769;DHT22;7476;49.404;11.152;2022-11-18T08:21:19;7.70;99.90
14769;DHT22;7476;49.404;11.152;2022-11-18T08:23:49;7.70;99.90
14769;DHT22;7476;49.404;11.152;2022-11-18T08:26:16;7.70;99.90
14769;DHT22;7476;49.404;11.152;2022-11-18T08:28:43;7.70;99.90
14769;DHT22;7476;49.404;11.152;2022-11-18T08:31:13;7.70;99.90
14769;DHT22;7476;49.404;11.152;2022-11-18T08:33:40;7.80;99.90
14769;DHT22;7476;49.404;11.152;2022-11-18T08:36:08;7.80;99.90
14769;DHT22;7476;49.404;11.152;2022-11-18T08:38:36;7.80;99.90
14769;DHT22;7476;49.404;11.152;2022-11-18T08:41:02;7.80;99.90
14769;DHT22;7476;49.404;11.152;2022-11-18T08:43:31;7.80;99.90
14769;DHT22;7476;49.404;11.152;2022-11-18T08:45:58;7.80;99.90
14769;DHT22;7476;49.404;11.152;2022-11-18T08:48:26;7.80;99.90
14769;DHT22;7476;49.404;11.152;2022-11-18T08:50:53;7.80;99.90
14769;DHT22;7476;49.404;11.152;2022-11-18T08:53:19;7.80;99.90
14769;DHT22;7476;49.404;11.152;2022-11-18T08:55:46;7.80;99.90
14769;DHT22;7476;49.404;11.152;2022-11-18T08:58:13;7.80;99.90
14769;DHT22;7476;49.404;11.152;2022-11-18T09:00:40;7.80;99.90
14769;DHT22;7476;49.404;11.152;2022-11-18T09:03:06;7.80;99.90
14769;DHT22;7476;49.404;11.152;2022-11-18T09:05:34;7.70;99.90
14769;DHT22;7476;49.404;11.152;2022-11-18T09:08:01;7.70;99.90
14769;DHT22;7476;49.404;11.152;2022-11-18T09:10:28;7.70;99.90
14769;DHT22;7476;49.404;11.152;2022-11-18T09:12:54;7.80;99.90
14769;DHT22;7476;49.404;11.152;2022-11-18T09:15:21;7.80;99.90
14769;DHT22;7476;49.404;11.152;2022-11-18T09:17:48;7.80;99.90
14769;DHT22;7476;49.404;11.152;2022-11-18T09:20:15;7.80;99.90
14769;DHT22;7476;49.404;11.152;2022-11-18T09:22:43;7.80;99.90
14769;DHT22;7476;49.404;11.152;2022-11-18T09:25:10;7.80;99.90
14769;DHT22;7476;49.404;11.152;2022-11-18T09:27:37;7.80;99.90
14769;DHT22;7476;49.404;11.152;2022-11-18T09:30:04;7.80;99.90
14769;DHT22;7476;49.404;11.152;2022-11-18T09:32:31;7.80;99.90
14769;DHT22;7476;49.404;11.152;2022-11-18T09:34:58;7.90;99.90
14769;DHT22;7476;49.404;11.152;2022-11-18T09:37:25;7.90;99.90
14769;DHT22;7476;49.404;11.152;2022-11-18T09:39:53;7.90;99.90
14769;DHT22;7476;49.404;11.152;2022-11-18T09:42:31;7.90;99.90
14769;DHT22;7476;49.404;11.152;2022-11-18T09:45:22;7.90;99.90
14769;DHT22;7476;49.404;11.152;2022-11-18T09:47:50;8.00;99.90
14769;DHT22;7476;49.404;11.152;2022-11-18T09:50:19;8.00;99.90
14769;DHT22;7476;49.404;11.152;2022-11-18T09:52:51;8.00;99.90
14769;DHT22;7476;49.404;11.152;2022-11-18T09:55:22;8.00;99.90
14769;DHT22;7476;49.404;11.152;2022-11-18T09:57:50;8.00;99.90
14769;DHT22;7476;49.404;11.152;2022-11-18T10:00:19;8.00;99.90
14769;DHT22;7476;49.404;11.152;2022-11-18T10:02:54;8.00;99.90
14769;DHT22;7476;49.404;11.152;2022-11-18T10:05:25;8.00;99.90
14769;DHT22;7476;49.404;11.152;2022-11-18T10:08:02;8.00;99.90
14769;DHT22;7476;49.404;11.152;2022-11-18T10:10:37;8.00;99.90
14769;DHT22;7476;49.404;11.152;2022-11-18T10:13:12;8.00;99.90
14769;DHT22;7476;49.404;11.152;2022-11-18T10:15:46;7.90;99.90
14769;DHT22;7476;49.404;11.152;2022-11-18T10:18:24;7.90;99.90
14769;DHT22;7476;49.404;11.152;2022-11-18T10:20:55;8.00;99.90
14769;DHT22;7476;49.404;11.152;2022-11-18T10:23:29;7.90;99.90
14769;DHT22;7476;49.404;11.152;2022-11-18T10:25:58;7.90;99.90
14769;DHT22;7476;49.404;11.152;2022-11-18T10:28:26;7.90;99.90
14769;DHT22;7476;49.404;11.152;2022-11-18T10:31:02;7.90;99.90
14769;DHT22;7476;49.404;11.152;2022-11-18T10:33:29;7.90;99.90
14769;DHT22;7476;49.404;11.152;2022-11-18T10:36:11;7.90;99.90
14769;DHT22;7476;49.404;11.152;2022-11-18T10:38:44;7.90;99.90
14769;DHT22;7476;49.404;11.152;2022-11-18T10:41:14;7.90;99.90
14769;DHT22;7476;49.404;11.152;2022-11-18T10:43:44;7.80;99.90
14769;DHT22;7476;49.404;11.152;2022-11-18T10:46:17;7.90;99.90
14769;DHT22;7476;49.404;11.152;2022-11-18T10:48:44;7.80;99.90
14769;DHT22;7476;49.404;11.152;2022-11-18T10:51:22;7.80;99.90
14769;DHT22;7476;49.404;11.152;2022-11-18T10:53:49;7.80;99.90
14769;DHT22;7476;49.404;11.152;2022-11-18T10:56:17;7.80;99.90
14769;DHT22;7476;49.404;11.152;2022-11-18T10:58:46;7.90;99.90
14769;DHT22;7476;49.404;11.152;2022-11-18T11:01:19;7.90;99.90
14769;DHT22;7476;49.404;11.152;2022-11-18T11:03:54;7.90;99.90
14769;DHT22;7476;49.404;11.152;2022-11-18T11:06:33;7.90;99.90
14769;DHT22;7476;49.404;11.152;2022-11-18T11:09:08;7.80;99.90
14769;DHT22;7476;49.404;11.152;2022-11-18T11:11:38;7.90;99.90
14769;DHT22;7476;49.404;11.152;2022-11-18T11:14:22;7.90;99.90
14769;DHT22;7476;49.404;11.152;2022-11-18T11:16:57;7.90;99.90
14769;DHT22;7476;49.404;11.152;2022-11-18T11:19:30;7.90;99.90
14769;DHT22;7476;49.404;11.152;2022-11-18T11:21:59;7.90;99.90
14769;DHT22;7476;49.404;11.152;2022-11-18T11:24:27;7.90;99.90
14769;DHT22;7476;49.404;11.152;2022-11-18T11:27:05;7.90;99.90
14769;DHT22;7476;49.404;11.152;2022-11-18T11:30:01;7.90;99.90
14769;DHT22;7476;49.404;11.152;2022-11-18T11:32:35;8.00;99.90
14769;DHT22;7476;49.404;11.152;2022-11-18T11:35:11;8.00;99.90
14769;DHT22;7476;49.404;11.152;2022-11-18T11:37:49;8.00;99.90
14769;DHT22;7476;49.404;11.152;2022-11-18T11:40:26;8.10;99.90
14769;DHT22;7476;49.404;11.152;2022-11-18T11:43:06;8.00;99.90
14769;DHT22;7476;49.404;11.152;2022-11-18T11:45:45;8.10;99.90
14769;DHT22;7476;49.404;11.152;2022-11-18T11:48:26;8.00;99.90
14769;DHT22;7476;49.404;11.152;2022-11-18T11:50:58;8.10;99.90
14769;DHT22;7476;49.404;11.152;2022-11-18T11:53:45;8.10;99.90
14769;DHT22;7476;49.404;11.152;2022-11-18T11:56:19;8.00;99.90
14769;DHT22;7476;49.404;11.152;2022-11-18T11:59:03;8.10;99.90
14769;DHT22;7476;49.404;11.152;2022-11-18T12:01:33;8.10;99.90
14769;DHT22;7476;49.404;11.152;2022-11-18T12:04:12;8.10;99.90
14769;DHT22;7476;49.404;11.152;2022-11-18T12:06:44;8.10;99.90
14769;DHT22;7476;49.404;11.152;2022-11-18T12:09:16;8.20;99.90
14769;DHT22;7476;49.404;11.152;2022-11-18T12:11:50;8.20;99.90
14769;DHT22;7476;49.404;11.152;2022-11-18T12:14:28;8.20;99.90
14769;DHT22;7476;49.404;11.152;2022-11-18T12:17:03;8.10;99.90
14769;DHT22;7476;49.404;11.152;2022-11-18T12:19:37;8.10;99.90
14769;DHT22;7476;49.404;11.152;2022-11-18T12:22:04;8.10;99.90
14769;DHT22;7476;49.404;11.152;2022-11-18T12:24:36;8.20;99.90
14769;DHT22;7476;49.404;11.152;2022-11-18T12:27:11;8.20;99.90
14769;DHT22;7476;49.404;11.152;2022-11-18T12:29:52;8.20;99.90
14769;DHT22;7476;49.404;11.152;2022-11-18T12:32:31;8.20;99.90
14769;DHT22;7476;49.404;11.152;2022-11-18T12:35:03;8.20;99.90
14769;DHT22;7476;49.404;11.152;2022-11-18T12:37:43;8.30;99.90
14769;DHT22;7476;49.404;11.152;2022-11-18T12:43:05;8.20;99.90
14769;DHT22;7476;49.404;11.152;2022-11-18T12:45:55;8.20;99.90
14769;DHT22;7476;49.404;11.152;2022-11-18T12:48:31;8.30;99.90
14769;DHT22;7476;49.404;11.152;2022-11-18T12:50:59;8.30;99.90
14769;DHT22;7476;49.404;11.152;2022-11-18T12:53:34;8.30;99.90
14769;DHT22;7476;49.404;11.152;2022-11-18T12:56:10;8.30;99.90
14769;DHT22;7476;49.404;11.152;2022-11-18T12:58:43;8.30;99.90
14769;DHT22;7476;49.404;11.152;2022-11-18T13:01:14;8.30;99.90
14769;DHT22;7476;49.404;11.152;2022-11-18T13:03:42;8.30;99.90
14769;DHT22;7476;49.404;11.152;2022-11-18T13:06:20;8.30;99.90
14769;DHT22;7476;49.404;11.152;2022-11-18T13:08:51;8.30;99.90
14769;DHT22;7476;49.404;11.152;2022-11-18T13:11:18;8.30;99.90
14769;DHT22;7476;49.404;11.152;2022-11-18T13:14:04;8.40;99.90
14769;DHT22;7476;49.404;11.152;2022-11-18T13:16:50;8.50;99.90
14769;DHT22;7476;49.404;11.152;2022-11-18T13:19:35;8.40;99.90
14769;DHT22;7476;49.404;11.152;2022-11-18T13:22:02;8.40;99.90
14769;DHT22;7476;49.404;11.152;2022-11-18T13:24:48;8.40;99.90
14769;DHT22;7476;49.404;11.152;2022-11-18T13:27:25;8.40;99.90
14769;DHT22;7476;49.404;11.152;2022-11-18T13:30:00;8.40;99.90
14769;DHT22;7476;49.404;11.152;2022-11-18T13:32:29;8.40;99.90
14769;DHT22;7476;49.404;11.152;2022-11-18T13:34:57;8.30;99.90
14769;DHT22;7476;49.404;11.152;2022-11-18T13:37:27;8.30;99.90
14769;DHT22;7476;49.404;11.152;2022-11-18T13:39:54;8.40;99.90
14769;DHT22;7476;49.404;11.152;2022-11-18T13:42:23;8.30;99.90
14769;DHT22;7476;49.404;11.152;2022-11-18T13:44:54;8.30;99.90
14769;DHT22;7476;49.404;11.152;2022-11-18T13:47:27;8.40;99.90
14769;DHT22;7476;49.404;11.152;2022-11-18T13:50:03;8.30;99.90
14769;DHT22;7476;49.404;11.152;2022-11-18T13:52:36;8.30;99.90
14769;DHT22;7476;49.404;11.152;2022-11-18T13:55:08;8.20;99.90
14769;DHT22;7476;49.404;11.152;2022-11-18T13:57:38;8.30;99.90
14769;DHT22;7476;49.404;11.152;2022-11-18T14:00:14;8.30;99.90
14769;DHT22;7476;49.404;11.152;2022-11-18T14:02:49;8.20;99.90
14769;DHT22;7476;49.404;11.152;2022-11-18T14:05:20;8.30;99.90
14769;DHT22;7476;49.404;11.152;2022-11-18T14:08:01;8.20;99.90
14769;DHT22;7476;49.404;11.152;2022-11-18T14:10:30;8.20;99.90
14769;DHT22;7476;49.404;11.152;2022-11-18T14:12:57;8.20;99.90
14769;DHT22;7476;49.404;11.152;2022-11-18T14:15:33;8.30;99.90
14769;DHT22;7476;49.404;11.152;2022-11-18T14:18:01;8.30;99.90
14769;DHT22;7476;49.404;11.152;2022-11-18T14:20:30;8.20;99.90
14769;DHT22;7476;49.404;11.152;2022-11-18T14:22:59;8.20;99.90
14769;DHT22;7476;49.404;11.152;2022-11-18T14:25:28;8.20;99.90
14769;DHT22;7476;49.404;11.152;2022-11-18T14:27:56;8.20;99.90
14769;DHT22;7476;49.404;11.152;2022-11-18T14:30:32;8.20;99.90
14769;DHT22;7476;49.404;11.152;2022-11-18T14:33:18;8.20;99.90
14769;DHT22;7476;49.404;11.152;2022-11-18T14:35:50;8.20;99.90
14769;DHT22;7476;49.404;11.152;2022-11-18T14:38:20;8.20;99.90
14769;DHT22;7476;49.404;11.152;2022-11-18T14:40:53;8.20;99.90
14769;DHT22;7476;49.404;11.152;2022-11-18T14:43:20;8.10;99.90
14769;DHT22;7476;49.404;11.152;2022-11-18T14:45:46;8.10;99.90
14769;DHT22;7476;49.404;11.152;2022-11-18T14:48:15;8.10;99.90
14769;DHT22;7476;49.404;11.152;2022-11-18T14:50:42;8.10;99.90
14769;DHT22;7476;49.404;11.152;2022-11-18T14:53:11;8.10;99.90
14769;DHT22;7476;49.404;11.152;2022-11-18T14:55:38;8.10;99.90
14769;DHT22;7476;49.404;11.152;2022-11-18T14:58:08;8.10;99.90
14769;DHT22;7476;49.404;11.152;2022-11-18T15:00:37;8.20;99.90
14769;DHT22;7476;49.404;11.152;2022-11-18T15:03:03;8.10;99.90
14769;DHT22;7476;49.404;11.152;2022-11-18T15:05:30;8.10;99.90
14769;DHT22;7476;49.404;11.152;2022-11-18T15:07:57;8.10;99.90
14769;DHT22;7476;49.404;11.152;2022-11-18T15:10:25;8.10;99.90
14769;DHT22;7476;49.404;11.152;2022-11-18T15:12:52;8.10;99.90
14769;DHT22;7476;49.404;11.152;2022-11-18T15:15:18;8.10;99.90
14769;DHT22;7476;49.404;11.152;2022-11-18T15:17:45;8.10;99.90
14769;DHT22;7476;49.404;11.152;2022-11-18T15:20:13;8.10;99.90
14769;DHT22;7476;49.404;11.152;2022-11-18T15:22:41;8.10;99.90
14769;DHT22;7476;49.404;11.152;2022-11-18T15:25:09;8.10;99.90
14769;DHT22;7476;49.404;11.152;2022-11-18T15:27:37;8.10;99.90
14769;DHT22;7476;49.404;11.152;2022-11-18T15:30:05;8.10;99.90
14769;DHT22;7476;49.404;11.152;2022-11-18T15:32:31;8.10;99.90
14769;DHT22;7476;49.404;11.152;2022-11-18T15:35:00;8.00;99.90
14769;DHT22;7476;49.404;11.152;2022-11-18T15:37:27;8.00;99.90
14769;DHT22;7476;49.404;11.152;2022-11-18T15:39:53;8.10;99.90
14769;DHT22;7476;49.404;11.152;2022-11-18T15:42:20;8.10;99.90
14769;DHT22;7476;49.404;11.152;2022-11-18T15:44:48;8.10;99.90
14769;DHT22;7476;49.404;11.152;2022-11-18T15:47:15;8.00;99.90
14769;DHT22;7476;49.404;11.152;2022-11-18T15:49:42;8.10;99.90
14769;DHT22;7476;49.404;11.152;2022-11-18T15:52:09;8.10;99.90
14769;DHT22;7476;49.404;11.152;2022-11-18T15:54:37;8.10;99.90
14769;DHT22;7476;49.404;11.152;2022-11-18T15:57:04;8.00;99.90
14769;DHT22;7476;49.404;11.152;2022-11-18T15:59:30;8.00;99.90
14769;DHT22;7476;49.404;11.152;2022-11-18T16:01:58;8.00;99.90
14769;DHT22;7476;49.404;11.152;2022-11-18T16:04:25;8.00;99.90
14769;DHT22;7476;49.404;11.152;2022-11-18T16:06:52;8.00;99.90
14769;DHT22;7476;49.404;11.152;2022-11-18T16:09:19;8.00;99.90